Time;durP1;ratioP1;P1;durP2;ratioP2;P2;SDS_P1;SDS_P2;PMS_P1;PMS_P2;Temp;Humidity;BMP_temperature;BMP_pressure;BME280_temperature;BME280_humidity;BME280_pressure;Samples;Min_cycle;Max_cycle;Signal;HPM_P1;HPM_P2
2023/06/21 00:00:00;;;;;;;28.85;26.52;;;;;;;25.38;50.63;99914.94;5026999;28;97027;-81
2023/06/21 00:02:28;;;;;;;27.10;25.05;;;;;;;25.42;50.44;99919.00;5023550;28;96959;-81
2023/06/21 00:04:55;;;;;;;27.83;25.80;;;;;;;25.32;50.63;99919.09;5027683;28;99076;-81
2023/06/21 00:07:23;;;;;;;27.85;25.33;;;;;;;25.29;51.07;99925.63;5015285;28;98396;-82
2023/06/21 00:09:49;;;;;;;26.17;24.27;;;;;;;25.21;51.40;99914.81;5030560;28;97299;-81
2023/06/21 00:12:15;;;;;;;28.80;26.40;;;;;;;24.91;52.08;99893.75;5017841;28;97506;-82
2023/06/21 00:14:40;;;;;;;27.77;25.55;;;;;;;25.11;51.65;99927.47;5021322;28;98682;-82
2023/06/21 00:17:06;;;;;;;28.20;25.95;;;;;;;25.09;51.54;99916.03;5014339;28;98731;-82
2023/06/21 00:19:31;;;;;;;27.48;24.85;;;;;;;25.14;51.84;99924.50;5014849;28;97744;-81
2023/06/21 00:21:58;;;;;;;28.55;25.98;;;;;;;25.05;52.04;99917.38;5021241;28;97645;-82
2023/06/21 00:24:23;;;;;;;26.75;24.75;;;;;;;25.10;52.08;99933.00;5026281;28;98575;-82
2023/06/21 00:26:49;;;;;;;27.95;25.75;;;;;;;24.97;52.81;99933.41;5023294;28;98267;-81
2023/06/21 00:29:15;;;;;;;27.38;24.83;;;;;;;24.92;52.81;99935.69;5009800;28;96938;-82
2023/06/21 00:31:40;;;;;;;28.23;25.98;;;;;;;24.90;52.59;99921.56;5026720;28;96597;-82
2023/06/21 00:34:06;;;;;;;26.75;24.30;;;;;;;24.92;52.71;99925.78;5010977;28;98680;-82
2023/06/21 00:36:31;;;;;;;28.23;25.98;;;;;;;24.97;53.06;99925.34;5027757;28;98354;-81
2023/06/21 00:38:57;;;;;;;28.77;26.33;;;;;;;24.84;53.58;99923.91;4993876;28;96789;-81
2023/06/21 00:41:23;;;;;;;27.15;24.80;;;;;;;24.55;53.76;99907.16;4998822;28;97763;-81
2023/06/21 00:43:48;;;;;;;28.13;25.77;;;;;;;24.65;53.76;99920.50;5017181;28;98671;-81
2023/06/21 00:46:15;;;;;;;28.15;25.45;;;;;;;24.70;53.61;99920.91;5016669;28;98390;-82
2023/06/21 00:48:40;;;;;;;28.60;26.13;;;;;;;24.56;54.12;99912.38;5001266;28;96826;-82
2023/06/21 00:51:06;;;;;;;28.52;26.10;;;;;;;24.44;54.56;99918.97;5003477;28;97058;-81
2023/06/21 00:53:32;;;;;;;27.23;25.05;;;;;;;24.55;54.08;99924.13;5025119;28;98886;-82
2023/06/21 00:55:58;;;;;;;25.60;23.70;;;;;;;24.41;54.79;99911.19;5004788;28;97305;-82
2023/06/21 00:58:24;;;;;;;28.25;26.05;;;;;;;24.17;55.46;99914.41;5027489;28;96658;-82
2023/06/21 01:00:50;;;;;;;30.08;27.05;;;;;;;24.25;55.29;99919.03;5025731;28;96914;-81
2023/06/21 01:03:22;;;;;;;29.70;26.83;;;;;;;24.15;55.41;99903.00;5012624;28;100733;-82
2023/06/21 01:06:03;;;;;;;27.73;25.60;;;;;;;24.19;55.62;99920.47;5007749;28;100140;-82
2023/06/21 01:08:56;;;;;;;28.25;25.13;;;;;;;24.06;55.71;99899.41;5026104;28;96715;-82
2023/06/21 01:11:26;;;;;;;28.65;26.38;;;;;;;24.26;55.28;99916.22;5003007;28;96664;-82
2023/06/21 01:14:06;;;;;;;29.10;26.37;;;;;;;24.31;55.10;99905.03;4998393;28;98933;-82
2023/06/21 01:16:39;;;;;;;28.90;26.67;;;;;;;24.28;55.25;99911.53;4998035;28;98657;-82
2023/06/21 01:19:06;;;;;;;27.42;25.23;;;;;;;24.17;55.57;99909.06;5002861;28;97170;-82
2023/06/21 01:21:32;;;;;;;28.52;26.30;;;;;;;24.00;55.96;99902.66;5003638;28;96968;-82
2023/06/21 01:24:13;;;;;;;27.52;25.42;;;;;;;24.19;55.56;99925.84;5009522;28;98554;-82
2023/06/21 01:26:48;;;;;;;28.60;26.23;;;;;;;24.11;55.81;99920.38;5006453;28;100339;-82
2023/06/21 01:29:17;;;;;;;26.95;24.95;;;;;;;24.20;55.28;99922.16;5012991;28;96649;-82
2023/06/21 01:31:43;;;;;;;28.50;26.30;;;;;;;24.19;55.13;99907.06;5012686;28;97171;-82
2023/06/21 01:34:09;;;;;;;27.77;25.50;;;;;;;24.08;56.06;99915.31;5014264;28;98571;-82
2023/06/21 01:36:38;;;;;;;27.55;25.20;;;;;;;24.12;55.38;99911.38;4999155;28;98577;-82
2023/06/21 01:39:05;;;;;;;28.02;25.35;;;;;;;24.07;55.87;99901.06;4997126;28;96666;-82
2023/06/21 01:41:30;;;;;;;27.88;25.67;;;;;;;23.87;56.24;99884.25;4999998;28;98203;-82
2023/06/21 01:43:57;;;;;;;29.58;26.83;;;;;;;23.88;56.53;99895.78;5016334;28;98766;-81
2023/06/21 01:46:23;;;;;;;29.67;27.25;;;;;;;23.66;57.13;99894.31;4997836;28;100466;-82
2023/06/21 01:48:49;;;;;;;28.05;25.90;;;;;;;23.74;56.55;99883.75;5012357;28;96807;-81
2023/06/21 01:51:16;;;;;;;27.85;25.65;;;;;;;23.75;57.04;99898.81;5021110;28;97117;-82
2023/06/21 01:53:42;;;;;;;27.73;25.40;;;;;;;23.58;57.42;99902.22;5005402;28;98785;-82
2023/06/21 01:56:10;;;;;;;28.33;26.25;;;;;;;23.63;57.37;99908.00;4988242;28;100236;-82
2023/06/21 01:58:35;;;;;;;29.65;27.25;;;;;;;23.53;57.68;99899.13;4975153;28;96712;-82
2023/06/21 02:01:05;;;;;;;29.15;26.73;;;;;;;23.55;57.42;99897.16;5008274;28;96789;-82
2023/06/21 02:03:32;;;;;;;28.38;26.17;;;;;;;23.40;57.57;99886.91;5011804;28;98592;-82
2023/06/21 02:06:03;;;;;;;29.35;26.90;;;;;;;23.62;56.92;99907.16;5022983;28;100225;-82
2023/06/21 02:08:29;;;;;;;;;;;;;;;23.47;57.65;99906.78;5019588;28;96642;-82
2023/06/21 02:10:55;;;;;;;28.48;26.17;;;;;;;23.34;57.94;99914.28;4989402;28;97018;-81
2023/06/21 02:13:20;;;;;;;28.33;25.73;;;;;;;23.35;57.79;99912.44;5024984;28;97648;-82
2023/06/21 02:15:46;;;;;;;30.33;27.80;;;;;;;23.31;57.59;99908.38;5013678;28;98571;-82
2023/06/21 02:18:13;;;;;;;29.60;27.00;;;;;;;23.32;57.51;99900.19;4998664;28;96801;-82
2023/06/21 02:20:39;;;;;;;30.38;27.65;;;;;;;23.19;58.12;99910.38;5001124;28;97309;-82
2023/06/21 02:23:05;;;;;;;29.10;26.75;;;;;;;23.19;57.97;99902.34;5032347;28;98957;-82
2023/06/21 02:25:35;;;;;;;28.90;26.50;;;;;;;23.11;57.96;99900.38;4987028;28;101017;-82
2023/06/21 02:28:02;;;;;;;30.48;27.80;;;;;;;23.21;57.93;99908.38;5017275;28;97416;-82
2023/06/21 02:30:27;;;;;;;29.13;26.98;;;;;;;23.23;57.77;99915.28;5023446;28;96850;-82
2023/06/21 02:32:53;;;;;;;29.40;26.58;;;;;;;23.14;57.90;99912.63;5025239;28;98634;-82
2023/06/21 02:35:18;;;;;;;28.65;26.40;;;;;;;22.94;58.05;99895.69;5013173;28;100124;-82
2023/06/21 02:37:44;;;;;;;30.45;27.60;;;;;;;23.16;57.85;99916.00;5006169;28;96701;-82
2023/06/21 02:40:10;;;;;;;28.70;26.48;;;;;;;23.17;57.74;99905.16;5027381;28;96802;-82
2023/06/21 02:42:37;;;;;;;29.95;27.27;;;;;;;23.32;57.13;99916.25;5031553;28;98676;-82
2023/06/21 02:45:04;;;;;;;28.27;26.05;;;;;;;23.21;57.37;99893.19;5013048;28;100107;-81
2023/06/21 02:47:29;;;;;;;30.92;28.30;;;;;;;23.24;57.49;99906.28;5031869;28;97124;-82
2023/06/21 02:49:55;;;;;;;30.02;26.95;;;;;;;23.29;57.31;99916.53;5018977;28;96825;-82
2023/06/21 02:52:21;;;;;;;29.70;27.05;;;;;;;23.25;57.43;99918.66;5031238;28;98697;-82
2023/06/21 02:54:46;;;;;;;29.38;26.55;;;;;;;23.16;57.29;99902.63;5029236;28;98046;-82
2023/06/21 02:57:12;;;;;;;29.75;26.77;;;;;;;23.16;57.35;99916.00;4988572;28;96825;-82
2023/06/21 02:59:37;;;;;;;29.30;27.00;;;;;;;23.12;57.26;99917.25;5011554;28;96807;-83
2023/06/21 03:02:03;;;;;;;28.50;26.25;;;;;;;23.26;57.23;99922.19;5030922;27;98732;-82
2023/06/21 03:04:29;;;;;;;28.45;26.15;;;;;;;23.41;56.89;99931.44;5031748;28;97275;-81
2023/06/21 03:06:55;;;;;;;28.80;26.38;;;;;;;23.36;56.85;99923.03;4988248;28;98802;-81
2023/06/21 03:09:21;;;;;;;29.50;26.88;;;;;;;23.50;56.55;99935.97;5030940;28;97262;-81
2023/06/21 03:11:47;;;;;;;29.35;26.95;;;;;;;23.37;56.79;99924.69;5021986;28;97774;-81
2023/06/21 03:14:13;;;;;;;29.15;26.65;;;;;;;23.32;56.90;99916.25;5012340;28;99914;-81
2023/06/21 03:16:41;;;;;;;28.92;26.30;;;;;;;23.35;56.84;99925.84;5025974;28;97205;-82
2023/06/21 03:19:08;;;;;;;30.25;27.33;;;;;;;23.30;57.25;99941.47;5014045;28;96974;-81
2023/06/21 03:21:34;;;;;;;28.05;25.75;;;;;;;23.29;57.36;99937.97;5012769;28;100079;-81
2023/06/21 03:24:01;;;;;;;28.00;25.90;;;;;;;23.39;56.89;99943.31;4996858;28;100243;-81
2023/06/21 03:26:27;;;;;;;29.23;26.83;;;;;;;23.45;56.84;99951.63;4992364;28;96653;-81
2023/06/21 03:28:54;;;;;;;29.83;27.23;;;;;;;23.37;57.21;99950.63;5000189;28;96982;-81
2023/06/21 03:31:20;;;;;;;28.70;26.30;;;;;;;23.45;56.87;99964.16;5015283;28;98609;-82
2023/06/21 03:33:46;;;;;;;28.10;25.90;;;;;;;23.36;57.26;99954.28;5003775;28;100325;-81
2023/06/21 03:36:12;;;;;;;29.52;27.15;;;;;;;23.41;57.12;99954.72;5023627;28;96752;-81
2023/06/21 03:38:38;;;;;;;28.42;26.20;;;;;;;23.50;56.84;99953.84;5031689;28;97011;-81
2023/06/21 03:41:04;;;;;;;28.75;26.08;;;;;;;23.34;57.50;99956.28;5000899;28;100160;-81
2023/06/21 03:43:30;;;;;;;29.80;27.23;;;;;;;23.30;57.40;99950.38;5008395;28;99412;-81
2023/06/21 03:45:58;;;;;;;26.88;24.90;;;;;;;23.28;57.54;99958.53;5025522;28;97052;-82
2023/06/21 03:48:25;;;;;;;27.60;25.27;;;;;;;23.23;57.72;99951.91;5000072;28;96871;-81
2023/06/21 03:50:50;;;;;;;27.73;25.52;;;;;;;23.21;57.69;99943.19;5030065;28;98814;-82
2023/06/21 03:53:16;;;;;;;28.20;25.90;;;;;;;23.31;57.72;99951.22;4999197;28;100238;-81
2023/06/21 03:55:43;;;;;;;28.50;26.27;;;;;;;23.21;57.93;99952.09;4999238;28;97588;-81
2023/06/21 03:58:12;;;;;;;27.92;25.42;;;;;;;23.29;57.66;99943.31;4994069;28;96838;-81
2023/06/21 04:00:38;;;;;;;28.08;25.98;;;;;;;23.30;57.50;99930.75;4991977;28;100670;-81
2023/06/21 04:03:04;;;;;;;28.83;26.35;;;;;;;23.31;57.74;99938.66;5010438;28;100209;-81
2023/06/21 04:05:30;;;;;;;28.48;25.58;;;;;;;23.26;58.10;99924.84;5020224;28;96861;-81
2023/06/21 04:07:58;;;;;;;28.10;25.70;;;;;;;23.30;57.90;99915.56;5025762;28;96814;-81
2023/06/21 04:10:24;;;;;;;30.08;27.48;;;;;;;23.30;57.80;99912.91;5006080;28;97715;-81
2023/06/21 04:12:49;;;;;;;28.40;25.80;;;;;;;23.10;58.22;99889.81;5023760;28;97114;-81
2023/06/21 04:15:16;;;;;;;29.65;26.60;;;;;;;23.31;57.85;99901.19;5026402;27;97237;-81
2023/06/21 04:17:43;;;;;;;30.05;27.30;;;;;;;23.36;57.76;99893.56;5028225;28;96802;-81
2023/06/21 04:20:11;;;;;;;30.65;27.98;;;;;;;23.34;58.19;99900.06;5015994;28;100805;-82
2023/06/21 04:22:41;;;;;;;29.20;26.83;;;;;;;23.38;58.01;99896.09;5015883;28;100550;-81
2023/06/21 04:25:08;;;;;;;29.15;26.70;;;;;;;23.62;57.30;99907.16;5034121;28;96753;-81
2023/06/21 04:27:34;;;;;;;30.35;27.70;;;;;;;23.63;57.43;99922.25;5020673;28;97417;-81
2023/06/21 04:29:59;;;;;;;29.55;26.92;;;;;;;23.60;57.56;99921.69;5023945;28;99011;-81
2023/06/21 04:32:31;;;;;;;29.00;26.75;;;;;;;23.63;57.69;99921.41;5021414;28;98212;-81
2023/06/21 04:34:59;;;;;;;31.05;28.35;;;;;;;23.52;58.07;99921.56;5023428;28;97178;-81
2023/06/21 04:37:25;;;;;;;28.98;26.77;;;;;;;23.59;57.82;99920.84;5030517;28;97159;-81
2023/06/21 04:39:51;;;;;;;28.20;25.92;;;;;;;23.73;57.78;99935.63;5013812;28;98771;-81
2023/06/21 04:42:20;;;;;;;30.33;27.50;;;;;;;23.82;57.58;99937.44;5033209;28;98733;-81
2023/06/21 04:44:49;;;;;;;29.77;26.85;;;;;;;24.01;57.01;99938.34;5015673;28;97458;-81
2023/06/21 04:47:16;;;;;;;30.52;27.88;;;;;;;23.99;57.11;99933.13;5033963;28;97000;-81
2023/06/21 04:49:42;;;;;;;30.70;27.60;;;;;;;24.14;56.83;99934.34;5033548;28;98935;-81
2023/06/21 04:52:09;;;;;;;29.70;27.10;;;;;;;24.13;57.09;99926.44;5033175;28;98253;-81
2023/06/21 04:54:36;;;;;;;29.15;26.33;;;;;;;24.30;56.54;99930.16;5033242;28;97456;-81
2023/06/21 04:57:04;;;;;;;29.35;26.70;;;;;;;24.24;56.59;99920.88;5034244;28;97265;-81
2023/06/21 04:59:30;;;;;;;29.92;27.35;;;;;;;24.35;56.41;99906.44;5033488;28;98664;-81
2023/06/21 05:01:56;;;;;;;28.77;26.38;;;;;;;24.48;55.89;99923.00;5028535;28;98701;-81
2023/06/21 05:04:21;;;;;;;30.20;26.83;;;;;;;24.72;55.55;99927.78;5032585;28;96973;-82
2023/06/21 05:06:47;;;;;;;30.20;27.48;;;;;;;24.47;56.35;99940.13;5022171;28;96866;-81
2023/06/21 05:09:13;;;;;;;30.52;27.45;;;;;;;24.37;56.22;99929.41;5015049;28;99114;-81
2023/06/21 05:11:38;;;;;;;31.33;28.13;;;;;;;24.53;56.50;99952.09;5028487;28;97815;-81
2023/06/21 05:14:04;;;;;;;30.50;27.90;;;;;;;24.54;56.25;99957.28;5025071;28;96733;-81
2023/06/21 05:16:29;;;;;;;30.08;27.30;;;;;;;24.27;56.53;99942.03;5016843;28;96877;-82
2023/06/21 05:18:55;;;;;;;30.25;27.92;;;;;;;24.16;57.37;99972.56;5031008;28;99271;-82
2023/06/21 05:21:20;;;;;;;26.80;24.83;;;;;;;24.27;56.98;99984.09;5020585;28;98548;-82
2023/06/21 05:23:46;;;;;;;27.98;25.67;;;;;;;24.29;56.63;100016.97;5014360;28;96698;-91
2023/06/21 05:26:12;;;;;;;27.23;24.55;;;;;;;24.30;56.66;100038.28;5013647;28;96937;-84
2023/06/21 05:28:38;;;;;;;30.67;25.77;;;;;;;24.09;57.99;99984.88;5028124;28;98926;-86
2023/06/21 05:31:03;;;;;;;29.50;26.95;;;;;;;24.27;57.67;100021.66;5003002;28;98689;-86
2023/06/21 05:33:29;;;;;;;27.90;25.67;;;;;;;24.28;57.63;100029.53;5027598;27;96986;-86
2023/06/21 05:35:54;;;;;;;26.85;24.25;;;;;;;24.22;57.62;100016.72;5029484;28;97278;-86
2023/06/21 05:38:20;;;;;;;28.30;25.55;;;;;;;24.30;57.58;100021.34;5021432;28;98991;-86
2023/06/21 05:40:45;;;;;;;28.05;25.85;;;;;;;24.38;57.30;100026.81;5014716;28;98714;-86
2023/06/21 05:43:11;;;;;;;28.98;26.48;;;;;;;24.40;57.25;100030.19;5019427;28;96784;-89
2023/06/21 05:45:38;;;;;;;28.20;25.65;;;;;;;24.41;57.32;100018.47;5001866;28;96950;-86
2023/06/21 05:48:04;;;;;;;28.38;25.88;;;;;;;24.28;57.27;99996.50;5024120;28;98892;-85
2023/06/21 05:50:30;;;;;;;29.70;27.05;;;;;;;24.45;57.46;100025.25;5022214;28;98705;-86
2023/06/21 05:52:59;;;;;;;27.88;25.75;;;;;;;24.47;57.57;100019.75;5029739;28;96718;-86
2023/06/21 05:55:25;;;;;;;28.17;25.38;;;;;;;24.37;57.89;99996.44;5021261;28;96999;-86
2023/06/21 05:57:50;;;;;;;27.52;25.33;;;;;;;24.34;58.17;99985.19;5025157;28;98971;-87
2023/06/21 06:00:17;;;;;;;28.67;25.88;;;;;;;24.34;58.35;99991.38;5025592;28;98677;-86
2023/06/21 06:02:43;;;;;;;28.73;25.80;;;;;;;24.29;59.23;99999.06;4998302;28;97690;-85
2023/06/21 06:05:09;;;;;;;29.92;26.88;;;;;;;24.13;59.57;100004.19;5008238;28;98209;-86
2023/06/21 06:07:35;;;;;;;31.60;27.55;;;;;;;23.88;60.63;99993.16;5017013;28;99100;-86
2023/06/21 06:10:00;;;;;;;28.98;26.17;;;;;;;23.96;60.76;100003.13;5011615;28;98680;-86
2023/06/21 06:12:26;;;;;;;30.80;26.25;;;;;;;24.03;60.58;100009.59;5012856;28;96720;-86
2023/06/21 06:14:52;;;;;;;30.05;26.75;;;;;;;23.99;60.06;99991.25;5018912;28;97418;-85
2023/06/21 06:17:18;;;;;;;29.45;26.23;;;;;;;24.13;60.53;100012.25;5016000;28;99148;-86
2023/06/21 06:19:43;;;;;;;34.28;26.88;;;;;;;24.12;61.12;100015.94;5010823;28;98932;-81
2023/06/21 06:22:09;;;;;;;30.90;27.80;;;;;;;24.14;61.00;100014.78;5020767;28;97447;-84
2023/06/21 06:24:35;;;;;;;29.85;26.90;;;;;;;24.02;61.53;100001.69;5014128;28;96983;-84
2023/06/21 06:27:00;;;;;;;30.77;27.90;;;;;;;24.00;61.53;100009.91;5014535;28;99079;-84
2023/06/21 06:29:25;;;;;;;30.50;27.70;;;;;;;24.07;61.61;100023.56;4994682;28;98591;-84
2023/06/21 06:31:51;;;;;;;35.72;28.23;;;;;;;24.10;62.05;100037.50;5018785;28;97510;-84
2023/06/21 06:34:17;;;;;;;31.80;28.50;;;;;;;24.07;61.94;100021.72;5016129;28;96738;-84
2023/06/21 06:36:43;;;;;;;32.40;29.17;;;;;;;23.92;63.44;100009.78;5022263;28;98934;-83
2023/06/21 06:39:09;;;;;;;31.50;28.63;;;;;;;23.85;64.54;100022.91;5019885;28;98235;-82
2023/06/21 06:41:34;;;;;;;30.83;27.63;;;;;;;23.88;64.03;100009.22;5024925;28;97290;-82
2023/06/21 06:44:04;;;;;;;41.15;30.45;;;;;;;24.06;63.87;100008.47;5000486;28;97153;-81
2023/06/21 06:46:29;;;;;;;48.05;33.83;;;;;;;24.03;64.99;100019.47;5019685;28;99084;-81
2023/06/21 06:48:55;;;;;;;33.13;28.95;;;;;;;24.07;64.93;100012.81;5025634;28;98352;-80
2023/06/21 06:51:21;;;;;;;38.65;31.30;;;;;;;23.94;66.66;100013.16;5027015;28;97578;-80
2023/06/21 06:53:47;;;;;;;40.65;31.58;;;;;;;23.99;66.43;100018.91;5021662;28;96843;-80
2023/06/21 06:56:13;;;;;;;34.38;30.58;;;;;;;24.07;65.80;100005.63;5029241;28;98778;-81
2023/06/21 06:58:39;;;;;;;34.67;31.13;;;;;;;24.21;65.49;100007.00;5028497;28;98649;-81
2023/06/21 07:01:06;;;;;;;34.08;30.45;;;;;;;24.38;64.86;100008.88;5016132;28;96949;-83
2023/06/21 07:03:32;;;;;;;32.88;29.52;;;;;;;24.66;63.62;100025.00;5017917;28;96821;-82
2023/06/21 07:05:58;;;;;;;34.45;30.88;;;;;;;24.72;64.21;100042.34;5010761;28;98714;-83
2023/06/21 07:08:24;;;;;;;33.05;29.63;;;;;;;24.67;64.16;100060.72;5013115;28;98273;-82
2023/06/21 07:10:49;;;;;;;32.15;28.88;;;;;;;24.65;63.77;100073.47;5016965;28;96933;-82
2023/06/21 07:13:15;;;;;;;32.75;29.25;;;;;;;24.63;63.25;100063.69;5015564;28;97077;-83
2023/06/21 07:15:40;;;;;;;31.13;28.05;;;;;;;24.77;63.36;100072.25;5024553;28;98743;-78
2023/06/21 07:18:06;;;;;;;30.15;27.35;;;;;;;24.86;63.05;100092.84;5016454;28;98735;-79
2023/06/21 07:20:32;;;;;;;36.97;29.88;;;;;;;24.90;63.74;100093.38;5015137;28;96810;-77
2023/06/21 07:22:57;;;;;;;42.45;30.55;;;;;;;24.78;64.64;100085.56;5008909;28;97349;-77
2023/06/21 07:25:23;;;;;;;31.27;28.20;;;;;;;24.81;64.15;100103.16;5022593;28;98833;-77
2023/06/21 07:27:49;;;;;;;34.03;30.50;;;;;;;24.73;64.95;100095.88;5000630;28;98311;-76
2023/06/21 07:30:14;;;;;;;43.72;31.13;;;;;;;24.61;66.06;100079.13;5006680;28;96757;-77
2023/06/21 07:32:40;;;;;;;40.10;31.42;;;;;;;24.34;67.15;100087.94;5007206;28;97276;-77
2023/06/21 07:35:07;;;;;;;37.60;31.85;;;;;;;24.23;67.92;100103.38;5014534;28;98702;-76
2023/06/21 07:37:33;;;;;;;34.05;30.50;;;;;;;24.18;67.52;100106.50;5006757;28;98413;-74
2023/06/21 07:39:58;;;;;;;36.17;32.50;;;;;;;24.13;68.69;100095.34;4992015;28;97107;-77
2023/06/21 07:42:24;;;;;;;35.63;31.35;;;;;;;23.90;69.52;100078.75;5017132;28;97460;-78
2023/06/21 07:44:50;;;;;;;34.08;30.65;;;;;;;24.07;68.36;100094.09;5014966;28;99271;-78
2023/06/21 07:47:16;;;;;;;32.65;29.73;;;;;;;24.17;67.99;100096.75;5010039;28;98485;-78
2023/06/21 07:49:42;;;;;;;34.28;31.05;;;;;;;24.25;67.35;100088.81;5020432;27;96812;-78
2023/06/21 07:52:08;;;;;;;35.72;32.42;;;;;;;24.40;67.36;100102.59;4994457;28;97040;-79
2023/06/21 07:54:33;;;;;;;36.50;32.83;;;;;;;24.59;67.83;100104.41;5020210;28;98610;-78
2023/06/21 07:56:59;;;;;;;33.80;30.27;;;;;;;25.58;65.33;100109.91;5015667;28;98787;-77
2023/06/21 07:59:25;;;;;;;42.67;32.38;;;;;;;26.10;63.45;100104.63;5011939;28;97314;-78
2023/06/21 08:01:50;;;;;;;33.55;30.35;;;;;;;33.51;46.93;100092.69;5000985;28;98236;-79
2023/06/21 08:04:16;;;;;;;33.83;30.73;;;;;;;33.73;45.69;100089.75;5010747;28;98947;-78
2023/06/21 08:06:41;;;;;;;34.95;31.38;;;;;;;30.63;52.26;100087.09;5005670;28;98324;-76
2023/06/21 08:09:07;;;;;;;34.08;30.95;;;;;;;29.38;55.03;100110.19;5015193;28;96692;-79
2023/06/21 08:11:32;;;;;;;33.13;29.77;;;;;;;28.52;56.92;100096.59;5015349;28;97066;-80
2023/06/21 08:13:58;;;;;;;33.75;30.55;;;;;;;27.97;58.17;100113.53;5014292;28;98818;-81
2023/06/21 08:16:23;;;;;;;33.42;30.50;;;;;;;28.38;57.06;100106.22;5009329;28;98349;-76
2023/06/21 08:18:49;;;;;;;33.85;31.00;;;;;;;28.11;58.24;100120.09;5017043;28;96886;-76
2023/06/21 08:21:14;;;;;;;33.40;30.25;;;;;;;30.67;52.02;100106.50;5015699;28;96775;-78
2023/06/21 08:23:40;;;;;;;34.33;31.40;;;;;;;35.95;42.05;100114.94;5022978;28;98694;-78
2023/06/21 08:26:05;;;;;;;28.80;26.42;;;;;;;40.60;34.31;100109.28;5010896;28;98396;-75
2023/06/21 08:28:31;;;;;;;29.73;26.98;;;;;;;40.90;33.54;100113.53;4995759;28;96975;-78
2023/06/21 08:30:56;;;;;;;28.85;26.35;;;;;;;39.52;35.28;100108.72;5011646;28;96908;-78
2023/06/21 08:33:22;;;;;;;28.52;25.52;;;;;;;38.59;36.93;100118.91;5018310;28;98897;-78
2023/06/21 08:35:47;;;;;;;24.88;22.77;;;;;;;37.75;37.44;100114.47;5015883;28;98314;-78
2023/06/21 08:38:13;;;;;;;29.63;26.95;;;;;;;37.19;38.61;100115.72;4992859;28;96860;-78
2023/06/21 08:40:42;;;;;;;26.92;24.65;;;;;;;36.29;39.58;100121.78;5011567;28;97192;-78
2023/06/21 08:43:08;;;;;;;25.58;23.45;;;;;;;35.97;39.88;100126.47;5012544;28;99100;-78
2023/06/21 08:45:33;;;;;;;24.15;22.25;;;;;;;35.84;40.14;100121.97;5012533;28;98457;-78
2023/06/21 08:48:03;;;;;;;27.55;25.42;;;;;;;35.41;40.53;100122.66;5004107;28;97316;-78
2023/06/21 08:50:30;;;;;;;26.40;24.40;;;;;;;34.77;41.35;100112.69;5016856;28;97335;-78
2023/06/21 08:52:57;;;;;;;26.73;24.65;;;;;;;34.22;42.24;100127.44;5015041;28;98807;-78
2023/06/21 08:55:24;;;;;;;27.90;25.40;;;;;;;33.54;43.05;100124.06;4993466;28;98516;-79
2023/06/21 08:57:50;;;;;;;27.02;24.98;;;;;;;32.75;44.67;100127.28;4991336;28;96976;-79
2023/06/21 09:00:19;;;;;;;26.88;24.88;;;;;;;32.83;45.02;100125.25;5008348;28;98701;-79
2023/06/21 09:03:05;;;;;;;;;;;;;;;33.35;44.73;100133.84;5020701;28;98231;-79
2023/06/21 09:05:53;;;;;;;29.83;27.20;;;;;;;33.29;44.04;100129.22;5012745;28;98498;-73
2023/06/21 09:08:19;;;;;;;27.73;25.42;;;;;;;33.05;44.22;100130.63;4995928;28;97439;-78
2023/06/21 09:10:48;;;;;;;27.42;25.17;;;;;;;32.88;44.95;100139.06;5020367;28;97388;-68
2023/06/21 09:13:14;;;;;;;26.07;24.07;;;;;;;32.85;45.08;100138.66;4987815;28;98754;-68
2023/06/21 09:15:40;;;;;;;28.40;26.02;;;;;;;32.20;46.56;100129.84;5019529;28;99002;-68
2023/06/21 09:18:06;;;;;;;28.50;26.23;;;;;;;32.23;46.12;100146.59;5007577;28;97825;-68
2023/06/21 09:20:32;;;;;;;26.90;24.77;;;;;;;32.27;45.83;100147.03;5009309;28;97689;-68
2023/06/21 09:23:01;;;;;;;25.83;23.73;;;;;;;32.26;45.91;100145.38;5010186;28;98838;-78
2023/06/21 09:25:27;;;;;;;27.05;24.95;;;;;;;31.84;45.23;100149.78;5017081;28;98391;-78
2023/06/21 09:27:53;;;;;;;25.20;23.33;;;;;;;31.91;45.47;100144.44;5016060;28;96965;-78
2023/06/21 09:30:20;;;;;;;26.23;24.13;;;;;;;31.88;45.31;100144.81;5017280;28;97455;-78
2023/06/21 09:32:46;;;;;;;26.25;24.23;;;;;;;31.86;44.99;100142.31;5013811;28;98623;-78
2023/06/21 09:35:13;;;;;;;26.65;24.45;;;;;;;31.84;45.19;100141.66;5013839;28;98821;-78
2023/06/21 09:37:39;;;;;;;26.17;24.27;;;;;;;31.84;45.22;100141.66;5014541;28;97412;-78
2023/06/21 09:40:05;;;;;;;24.63;22.92;;;;;;;31.78;45.58;100142.44;5022402;28;96807;-77
2023/06/21 09:42:32;;;;;;;24.70;22.70;;;;;;;31.80;46.20;100135.78;5013319;28;99307;-78
2023/06/21 09:44:57;;;;;;;24.17;22.48;;;;;;;31.81;46.26;100125.75;4994614;28;98239;-78
2023/06/21 09:47:29;;;;;;;26.75;24.17;;;;;;;31.80;47.29;100133.06;5016377;28;97203;-77
2023/06/21 09:49:56;;;;;;;27.33;25.02;;;;;;;31.53;46.82;100126.56;5022402;28;97268;-78
2023/06/21 09:52:22;;;;;;;26.08;23.73;;;;;;;31.61;46.42;100127.44;5002391;28;99400;-77
2023/06/21 09:54:48;;;;;;;27.00;24.95;;;;;;;31.50;47.12;100131.50;5011691;28;98760;-78
2023/06/21 09:57:13;;;;;;;27.35;25.23;;;;;;;31.22;47.13;100117.84;5012929;28;96766;-78
2023/06/21 09:59:40;;;;;;;28.20;25.58;;;;;;;31.30;47.26;100133.97;5010559;28;97488;-78
2023/06/21 10:02:07;;;;;;;27.45;25.35;;;;;;;31.35;46.79;100134.28;5014086;28;98916;-78
2023/06/21 10:04:43;;;;;;;26.23;24.13;;;;;;;31.32;46.92;100132.75;5018424;28;98471;-78
2023/06/21 10:07:12;;;;;;;27.33;25.30;;;;;;;30.98;46.46;100127.13;5013077;28;97013;-77
2023/06/21 10:09:38;;;;;;;26.97;24.87;;;;;;;31.10;47.54;100137.31;4998865;28;96938;-78
2023/06/21 10:12:13;;;;;;;27.00;25.10;;;;;;;31.00;47.93;100131.34;5013296;28;98581;-77
2023/06/21 10:14:40;;;;;;;28.33;25.98;;;;;;;30.78;48.68;100126.88;5022771;28;98500;-78
2023/06/21 10:17:06;;;;;;;27.92;25.55;;;;;;;31.01;48.35;100132.16;5011307;28;97734;-77
2023/06/21 10:19:32;;;;;;;27.73;25.42;;;;;;;31.01;48.67;100132.16;5010740;28;97173;-77
2023/06/21 10:22:04;;;;;;;27.73;25.05;;;;;;;30.97;48.47;100123.59;5017366;28;98928;-77
2023/06/21 10:24:41;;;;;;;27.42;25.45;;;;;;;31.12;47.51;100137.09;5007053;28;98692;-77
2023/06/21 10:27:08;;;;;;;26.67;24.58;;;;;;;31.11;47.30;100130.00;5018019;28;97309;-77
2023/06/21 10:29:34;;;;;;;26.63;24.40;;;;;;;31.10;47.04;100131.06;5015102;28;97212;-77
2023/06/21 10:32:00;;;;;;;27.95;24.95;;;;;;;31.12;47.02;100137.09;5027939;28;98687;-77
2023/06/21 10:34:30;;;;;;;25.65;23.75;;;;;;;31.02;47.26;100126.56;5016753;28;98478;-78
2023/06/21 10:37:04;;;;;;;25.80;23.90;;;;;;;31.01;47.61;100122.19;5005568;28;97313;-77
2023/06/21 10:39:33;;;;;;;26.10;24.05;;;;;;;31.16;47.97;100130.28;5002385;28;97150;-77
2023/06/21 10:42:00;;;;;;;27.25;24.92;;;;;;;31.02;47.14;100125.75;5000385;28;98915;-77
2023/06/21 10:44:28;;;;;;;26.92;24.33;;;;;;;30.77;47.34;100117.03;5012758;28;98925;-77
2023/06/21 10:46:55;;;;;;;26.00;24.10;;;;;;;31.02;47.27;100123.88;4990414;28;96948;-77
2023/06/21 10:49:21;;;;;;;28.65;26.23;;;;;;;30.80;48.00;100114.81;5000010;28;97488;-78
2023/06/21 10:51:47;;;;;;;28.73;26.02;;;;;;;30.73;48.00;100111.16;5017996;28;98552;-77
2023/06/21 10:54:12;;;;;;;28.20;25.67;;;;;;;30.44;47.94;100112.84;5016611;28;98697;-78
2023/06/21 10:56:39;;;;;;;26.77;24.73;;;;;;;30.61;48.08;100104.56;5016719;28;96613;-77
2023/06/21 10:59:04;;;;;;;26.45;24.50;;;;;;;30.77;48.13;100103.50;4996043;28;96847;-77
2023/06/21 11:01:30;;;;;;;27.25;24.95;;;;;;;30.69;48.12;100112.59;5021065;28;98704;-77
2023/06/21 11:03:56;;;;;;;25.23;23.30;;;;;;;30.68;47.78;100100.06;5013607;28;98479;-77
2023/06/21 11:06:29;;;;;;;26.83;24.63;;;;;;;30.75;46.96;100105.56;4995919;28;97279;-77
2023/06/21 11:08:55;;;;;;;27.40;25.30;;;;;;;30.44;47.18;100109.31;5014053;28;96843;-78
2023/06/21 11:11:32;;;;;;;26.63;24.70;;;;;;;30.35;47.78;100108.56;5020019;28;98962;-78